COOK1: Arkansas River Nr Coolidge, KS

Data processed at Sat Dec 09 2017 23:29


All information presented herein is the property of the government of the United States of America and may be revised or deleted at any time without prior notice.
Dissemination of this information without the expressed written consent of the Public Affairs Office, Tulsa District U.S. Army Corps of Engineers is strictly prohibited.
These data are gathered electronically and, as presented, have not undergone any form of quality control. These data are not guaranteed to be valid or correct.
Go to home page.
Go to station list.

Upstream stations:

Downstream station:
Previous Day
Next Day
Current Day
    
SHEF ID:       COOK1     ARKANSAS R NR COOLIDGE, KS
STATION TYPE:  

               PRECIP     STAGE  STAGE(2)  RIV-FLOW  WTR-TEMP   CONDUCT  BAT-LOAD
                   in        ft        ft       cfs         F   umho/cm      volt
              Ccp-Rev   Ccp-Rev   Ccp-Rev   Ccp-Rev   Ccp-Rev   Ccp-Rev   Ccp-Rev
(US/Central)
12/07 00:00      0.00      3.33      3.28       161     37.72      6934     12.83
12/07 01:00      0.00      3.33      3.28       161     37.42      6932     12.77
12/07 02:00      0.00      3.32      3.29       160     37.04      6932     12.71
12/07 03:00      0.00      3.32      3.26       160     36.59      6935     12.65
12/07 04:00      0.00      3.34      3.31       163     36.12      6941     12.60
12/07 05:00      0.00      3.34      3.27       163     35.67      6948     12.60
12/07 06:00      0.00      3.33      3.30       161     35.24      6953     12.54
12/07 07:00      0.00      3.32      3.26       160     34.81      6946     12.54
12/07 08:00      0.00      3.33      3.29       161     34.52      6946     12.54
12/07 09:00      0.00      3.32      3.26       160     34.38      6968     12.60
12/07 10:00      0.00      3.32      3.27       160     34.59      6959     13.30
12/07 11:00      0.00      3.34      3.29       163     35.11      6955     13.48
12/07 12:00      0.00      3.34      3.27       163     36.01      6934     13.59
12/07 13:00      0.00      3.35      3.30       164     37.40      6925     13.83
12/07 14:00      0.00      3.34      3.30       163     38.50      6926     13.83
12/07 15:00      0.00      3.34      3.29       163     39.49      6921     13.77
12/07 16:00      0.00      3.34      3.30       163     39.87      6914     13.71
12/07 17:00      0.00      3.33      3.28       161     39.67      6916     13.65
12/07 18:00      0.00      3.33      3.30       161     39.29      6914     13.24
12/07 19:00      0.00      3.33      3.26       161     38.91      6919     13.00
12/07 20:00      0.00      3.32      3.28       160     38.48      6925     12.77
12/07 21:00      0.00      3.31      3.29       158     37.96      6930     12.89
12/07 22:00      0.00      3.35      3.31       164     37.56      6934     12.83
12/07 23:00      0.00      3.33      3.26       161     37.22      6935     12.77